Time;durP1;ratioP1;P1;durP2;ratioP2;P2;SDS_P1;SDS_P2;PMS_P1;PMS_P2;Temp;Humidity;BMP_temperature;BMP_pressure;BME280_temperature;BME280_humidity;BME280_pressure;Samples;Min_cycle;Max_cycle;Signal;HPM_P1;HPM_P2
2023/02/17 00:01:18;;;;;;;47.92;40.17;;;;;;;7.19;100.00;101612.19;10088425;28;20106;-65
2023/02/17 00:06:17;;;;;;;51.88;41.35;;;;;;;7.20;100.00;101613.03;10069243;28;20113;-64
2023/02/17 00:11:13;;;;;;;51.88;40.50;;;;;;;7.20;100.00;101613.84;10062870;28;20502;-64
2023/02/17 00:16:17;;;;;;;57.33;44.90;;;;;;;7.21;100.00;101596.41;10080665;28;20059;-65
2023/02/17 00:21:18;;;;;;;56.25;40.95;;;;;;;7.20;100.00;101597.53;10069316;28;20574;-65
2023/02/17 00:26:16;;;;;;;51.78;42.58;;;;;;;7.24;100.00;101593.16;10076960;28;20082;-66
2023/02/17 00:31:18;;;;;;;63.42;44.22;;;;;;;7.25;100.00;101593.97;10070682;28;20496;-66
2023/02/17 00:36:18;;;;;;;57.63;44.03;;;;;;;7.25;100.00;101593.97;10072699;28;20043;-66
2023/02/17 00:41:16;;;;;;;67.03;51.75;;;;;;;7.27;100.00;101586.38;10070668;28;20058;-66
2023/02/17 00:46:14;;;;;;;56.95;44.67;;;;;;;7.30;100.00;101586.63;10066998;28;20421;-66
2023/02/17 00:51:11;;;;;;;56.92;44.85;;;;;;;7.32;100.00;101584.44;10070487;28;20054;-67
2023/02/17 00:56:08;;;;;;;54.10;41.97;;;;;;;7.34;100.00;101581.44;10077866;28;20043;-66
2023/02/17 01:01:04;;;;;;;61.47;47.40;;;;;;;7.34;100.00;101587.69;10072734;28;20129;-66
2023/02/17 01:06:06;;;;;;;63.58;46.78;;;;;;;7.36;100.00;101580.09;10088535;28;20810;-67
2023/02/17 01:11:03;;;;;;;61.60;42.15;;;;;;;7.37;100.00;101570.81;10069104;28;20047;-66
2023/02/17 01:15:59;;;;;;;66.72;48.83;;;;;;;7.37;100.00;101551.78;10068714;28;20501;-66
2023/02/17 01:20:56;;;;;;;61.03;45.72;;;;;;;7.37;100.00;101540.09;10064649;28;20505;-66
2023/02/17 01:25:52;;;;;;;68.38;50.90;;;;;;;7.41;100.00;101548.53;10089768;28;20043;-66
2023/02/17 01:30:48;;;;;;;72.65;50.85;;;;;;;7.41;100.00;101543.09;10076352;28;20071;-65
2023/02/17 01:35:45;;;;;;;88.45;58.53;;;;;;;7.43;100.00;101546.34;10080996;28;20415;-65
2023/02/17 01:40:46;;;;;;;68.07;48.88;;;;;;;7.46;100.00;101529.47;10074714;28;20134;-65
2023/02/17 01:45:57;;;;;;;65.88;47.97;;;;;;;7.50;100.00;101525.09;10081393;28;20077;-65
2023/02/17 01:51:02;;;;;;;66.72;47.15;;;;;;;7.49;100.00;101507.13;10077999;28;20491;-65
2023/02/17 01:55:58;;;;;;;70.32;48.58;;;;;;;7.52;100.00;101493.78;10079996;28;20043;-65
2023/02/17 02:00:58;;;;;;;66.70;49.28;;;;;;;7.54;100.00;101482.59;10079873;28;20082;-65
2023/02/17 02:05:55;;;;;;;64.43;49.03;;;;;;;7.56;100.00;101483.94;10037441;28;20541;-65
2023/02/17 02:10:52;;;;;;;73.68;51.78;;;;;;;7.60;100.00;101465.19;10072965;28;20098;-65
2023/02/17 02:16:01;;;;;;;68.55;49.35;;;;;;;7.61;100.00;101450.47;10077614;28;20141;-64
2023/02/17 02:21:09;;;;;;;63.40;48.70;;;;;;;7.64;100.00;101449.91;10083307;28;20416;-64
2023/02/17 02:26:37;;;;;;;58.38;44.40;;;;;;;7.68;100.00;101444.72;10082273;28;20078;-64
2023/02/17 02:32:05;;;;;;;65.07;47.67;;;;;;;7.68;100.00;101445.56;10073149;28;20072;-64
2023/02/17 02:37:01;;;;;;;68.32;48.53;;;;;;;7.70;100.00;101427.00;10070495;28;20051;-66
2023/02/17 02:42:03;;;;;;;56.20;41.58;;;;;;;7.72;100.00;101424.81;10065030;28;20544;-67
2023/02/17 02:47:03;;;;;;;52.70;41.30;;;;;;;7.76;100.00;101425.09;10078496;28;20059;-67
2023/02/17 02:52:18;;;;;;;56.03;40.42;;;;;;;7.78;100.00;101420.97;10075601;28;20046;-67
2023/02/17 02:57:21;;;;;;;53.33;43.30;;;;;;;7.80;100.00;101410.63;10078591;28;20130;-67
2023/02/17 03:02:29;;;;;;;54.22;39.78;;;;;;;7.82;100.00;101404.06;10066249;28;20077;-66
2023/02/17 03:07:32;;;;;;;45.65;35.92;;;;;;;7.84;100.00;101401.88;10075987;28;20047;-65
2023/02/17 03:12:29;;;;;;;42.33;35.38;;;;;;;7.85;100.00;101401.59;10073608;28;20484;-66
2023/02/17 03:17:25;;;;;;;40.47;33.55;;;;;;;7.87;100.00;101399.44;10083687;28;20505;-67
2023/02/17 03:22:33;;;;;;;35.33;27.60;;;;;;;7.89;100.00;101390.94;10093304;28;20053;-66
2023/02/17 03:27:29;;;;;;;33.70;27.85;;;;;;;7.89;100.00;101380.06;10078944;28;20057;-67
2023/02/17 03:32:26;;;;;;;37.08;29.35;;;;;;;7.91;100.00;101369.69;10083799;28;20078;-66
2023/02/17 03:37:22;;;;;;;37.42;30.27;;;;;;;7.93;100.00;101370.22;10080337;28;20047;-66
2023/02/17 03:42:19;;;;;;;41.17;31.73;;;;;;;7.90;100.00;101370.81;10088998;28;20399;-65
2023/02/17 03:47:15;;;;;;;37.78;30.13;;;;;;;7.92;100.00;101366.69;10079417;28;20077;-67
2023/02/17 03:52:12;;;;;;;41.17;33.38;;;;;;;7.95;100.00;101366.13;10076839;28;20047;-66
2023/02/17 03:57:08;;;;;;;33.05;29.17;;;;;;;7.97;100.00;101357.69;10087894;28;20039;-66
2023/02/17 04:02:05;;;;;;;35.45;29.35;;;;;;;8.00;100.00;101343.50;10083348;28;20074;-66
2023/02/17 04:07:02;;;;;;;36.22;29.20;;;;;;;8.00;100.00;101359.81;10081696;28;20485;-66
2023/02/17 04:11:58;;;;;;;34.38;29.10;;;;;;;8.04;100.00;101350.00;10081226;28;20047;-65
2023/02/17 04:16:54;;;;;;;36.95;31.75;;;;;;;8.06;100.00;101331.47;10094556;28;20051;-66
2023/02/17 04:21:51;;;;;;;35.70;31.80;;;;;;;8.09;100.00;101340.97;10075173;28;20167;-67
2023/02/17 04:26:47;;;;;;;37.45;32.72;;;;;;;8.11;100.00;101349.69;10079311;28;20083;-68
2023/02/17 04:31:44;;;;;;;37.83;30.50;;;;;;;8.13;100.00;101342.03;10089074;28;20138;-67
2023/02/17 04:36:40;;;;;;;37.65;30.70;;;;;;;8.18;100.00;101342.78;10078263;28;20046;-67
2023/02/17 04:41:39;;;;;;;36.17;30.88;;;;;;;8.18;100.00;101334.63;10083195;28;20039;-69
2023/02/17 04:46:36;;;;;;;39.55;32.38;;;;;;;8.23;100.00;101320.94;10081254;28;20047;-68
2023/02/17 04:51:32;;;;;;;43.92;35.03;;;;;;;8.26;100.00;101325.00;10076254;28;20057;-66
2023/02/17 04:56:28;;;;;;;41.92;33.50;;;;;;;8.30;100.00;101330.69;10077362;28;20086;-67
2023/02/17 05:01:25;;;;;;;38.22;31.48;;;;;;;8.32;100.00;101317.59;10079336;28;20047;-67
2023/02/17 05:06:21;;;;;;;37.60;31.88;;;;;;;8.32;100.00;101309.44;10066437;28;20135;-67
2023/02/17 05:11:18;;;;;;;37.78;32.60;;;;;;;8.34;100.00;101304.50;10059989;28;20134;-68
2023/02/17 05:16:14;;;;;;;37.22;30.85;;;;;;;8.37;100.00;101298.47;10075801;28;20059;-68
2023/02/17 05:21:11;;;;;;;36.03;30.13;;;;;;;8.36;100.00;101275.06;10072212;28;20086;-68
2023/02/17 05:26:08;;;;;;;40.85;35.10;;;;;;;8.35;100.00;101278.88;10069356;28;20564;-68
2023/02/17 05:31:05;;;;;;;41.47;31.90;;;;;;;8.33;100.00;101264.72;10058025;28;20167;-68
2023/02/17 05:36:04;;;;;;;37.53;30.83;;;;;;;8.34;100.00;101258.19;10066708;28;20047;-66
2023/02/17 05:41:01;;;;;;;46.28;32.60;;;;;;;8.31;100.00;101251.41;10068501;28;20111;-67
2023/02/17 05:46:02;;;;;;;49.58;36.13;;;;;;;8.33;100.00;101259.28;10062667;28;20677;-66
2023/02/17 05:50:59;;;;;;;52.13;33.97;;;;;;;8.31;100.00;101224.16;10074366;28;20129;-66
2023/02/17 05:55:55;;;;;;;49.47;34.42;;;;;;;8.34;100.00;101222.78;10076463;28;20098;-66
2023/02/17 06:00:52;;;;;;;47.40;34.10;;;;;;;8.32;100.00;101225.78;10074359;28;20063;-65
2023/02/17 06:05:48;;;;;;;47.65;34.83;;;;;;;8.35;100.00;101224.38;10076208;28;20410;-67
2023/02/17 06:10:45;;;;;;;50.70;34.30;;;;;;;8.35;100.00;101225.19;10058590;28;20429;-66
2023/02/17 06:15:41;;;;;;;47.88;32.65;;;;;;;8.36;100.00;101226.03;10062748;28;20074;-66
2023/02/17 06:20:38;;;;;;;47.10;33.53;;;;;;;8.36;100.00;101213.19;10067148;28;20066;-66
2023/02/17 06:25:34;;;;;;;44.67;32.70;;;;;;;8.40;100.00;101205.28;10057135;28;20043;-66
2023/02/17 06:30:31;;;;;;;53.85;33.42;;;;;;;8.36;100.00;101199.56;10057708;28;20047;-66
2023/02/17 06:35:27;;;;;;;45.78;32.33;;;;;;;8.35;100.00;101169.88;10081938;28;20063;-66
2023/02/17 06:40:24;;;;;;;47.78;31.30;;;;;;;8.35;100.00;101153.53;10063534;28;20082;-66
2023/02/17 06:45:23;;;;;;;47.75;32.08;;;;;;;8.33;100.00;101144.84;10072727;28;20472;-66
2023/02/17 06:50:20;;;;;;;45.05;30.20;;;;;;;8.33;100.00;101136.66;10073850;28;20089;-66
2023/02/17 06:55:17;;;;;;;46.40;30.98;;;;;;;8.34;100.00;101141.84;10050919;28;20042;-66
2023/02/17 07:00:13;;;;;;;47.00;32.42;;;;;;;8.35;100.00;101142.63;10066889;28;20748;-66
2023/02/17 07:05:10;;;;;;;47.35;34.80;;;;;;;8.38;100.00;101131.19;10062025;28;20162;-66
2023/02/17 07:10:07;;;;;;;50.97;35.33;;;;;;;8.36;100.00;101117.03;10067485;28;20457;-66
2023/02/17 07:15:04;;;;;;;48.88;34.38;;;;;;;8.39;100.00;101127.34;10070680;28;20047;-67
2023/02/17 07:20:00;;;;;;;52.08;33.20;;;;;;;8.41;100.00;101119.72;10063769;28;20113;-66
2023/02/17 07:24:57;;;;;;;48.00;34.03;;;;;;;8.39;100.00;101111.78;10071178;28;20524;-67
2023/02/17 07:29:54;;;;;;;53.05;34.95;;;;;;;8.39;100.00;101105.53;10069530;28;20058;-67
2023/02/17 07:34:50;;;;;;;48.78;33.85;;;;;;;8.41;100.00;101101.44;10072472;28;20063;-67
2023/02/17 07:39:47;;;;;;;54.15;36.75;;;;;;;8.44;100.00;101097.31;10057960;28;20066;-66
2023/02/17 07:44:44;;;;;;;64.25;37.85;;;;;;;8.44;100.00;101097.31;10066345;28;20565;-67
2023/02/17 07:49:40;;;;;;;52.58;35.47;;;;;;;8.48;100.00;101108.44;10079192;28;20077;-66
2023/02/17 07:54:37;;;;;;;45.60;31.63;;;;;;;8.52;100.00;101104.03;10057724;28;21898;-67
2023/02/17 07:59:33;;;;;;;49.53;34.67;;;;;;;8.54;100.00;101096.34;10066142;28;20485;-67
2023/02/17 08:04:31;;;;;;;50.40;33.80;;;;;;;8.51;100.00;101069.69;10072832;28;20063;-67
2023/02/17 08:14:43;;;;;;;45.33;32.95;;;;;;;8.47;100.00;101058.59;10064894;28;20036;-66
2023/02/17 08:19:39;;;;;;;44.05;30.85;;;;;;;8.45;100.00;101049.91;10071822;28;20138;-67
2023/02/17 08:24:44;;;;;;;44.40;31.48;;;;;;;8.47;100.00;101036.78;10060783;28;20085;-67
2023/02/17 08:29:42;;;;;;;36.55;27.15;;;;;;;8.50;100.00;101019.03;10073427;28;20512;-67
2023/02/17 08:34:38;;;;;;;40.33;28.30;;;;;;;8.53;100.00;101019.25;10062918;28;20509;-67
2023/02/17 08:39:35;;;;;;;41.85;30.27;;;;;;;8.53;100.00;101019.25;10063889;28;20061;-67
2023/02/17 08:44:34;;;;;;;39.13;30.95;;;;;;;8.55;100.00;101010.78;10069321;28;20047;-67
2023/02/17 08:49:31;;;;;;;40.90;31.08;;;;;;;8.54;100.00;101009.97;10061031;28;20051;-67
2023/02/17 08:54:28;;;;;;;38.00;28.63;;;;;;;8.55;100.00;101010.78;10065875;28;20057;-67
2023/02/17 08:59:24;;;;;;;39.55;27.15;;;;;;;8.54;100.00;101018.16;10060501;28;20047;-66
2023/02/17 09:04:21;;;;;;;35.55;25.38;;;;;;;8.50;100.00;101030.75;10067398;28;20048;-66
2023/02/17 09:09:21;;;;;;;37.33;25.65;;;;;;;8.50;100.00;101025.28;10069529;28;20455;-67
2023/02/17 09:14:18;;;;;;;36.42;23.60;;;;;;;8.51;100.00;101010.56;10065059;28;20082;-67
2023/02/17 09:19:14;;;;;;;37.58;25.77;;;;;;;8.52;100.00;101001.28;10067606;28;20135;-67
2023/02/17 09:24:11;;;;;;;34.75;21.98;;;;;;;8.51;100.00;101005.09;10074805;28;20130;-67
2023/02/17 09:29:08;;;;;;;35.55;23.38;;;;;;;8.52;100.00;100971.31;10059302;28;20141;-66
2023/02/17 09:34:04;;;;;;;32.42;20.08;;;;;;;8.55;100.00;100970.69;10078066;28;20730;-65
2023/02/17 09:39:01;;;;;;;33.67;23.02;;;;;;;8.58;100.00;100961.91;10065434;28;20494;-66
2023/02/17 09:43:57;;;;;;;34.38;21.20;;;;;;;8.61;100.00;100944.19;10067536;28;20658;-66
2023/02/17 09:49:07;;;;;;;30.85;20.55;;;;;;;8.63;100.00;100937.31;10068325;28;20170;-67
2023/02/17 09:54:17;;;;;;;34.25;23.23;;;;;;;8.62;100.00;100930.25;10067761;28;20062;-66
2023/02/17 09:59:33;;;;;;;32.33;22.25;;;;;;;8.64;100.00;100922.56;10061597;28;20043;-67
2023/02/17 10:04:36;;;;;;;27.05;19.52;;;;;;;8.70;100.00;100955.19;10062657;28;20131;-67
2023/02/17 10:09:49;;;;;;;29.17;20.40;;;;;;;8.70;100.00;100966.91;10051499;28;20051;-67
2023/02/17 10:14:57;;;;;;;29.73;17.77;;;;;;;8.75;100.00;100934.13;10079455;28;20047;-67
2023/02/17 10:19:59;;;;;;;29.75;18.50;;;;;;;8.78;100.00;100951.78;10070576;28;20509;-66
2023/02/17 10:24:56;;;;;;;27.25;17.60;;;;;;;8.80;100.00;100955.03;10063088;28;20047;-66
2023/02/17 10:30:11;;;;;;;35.33;19.92;;;;;;;8.84;100.00;100978.66;10070690;28;20054;-65
2023/02/17 10:35:18;;;;;;;34.85;20.83;;;;;;;8.86;100.00;100948.34;10072325;28;20078;-66
2023/02/17 10:40:14;;;;;;;36.60;21.27;;;;;;;8.90;100.00;100968.47;10071486;28;20137;-66
2023/02/17 10:45:29;;;;;;;36.42;20.83;;;;;;;8.93;100.00;100940.59;10069702;28;20040;-66
2023/02/17 10:50:26;;;;;;;39.97;20.90;;;;;;;8.97;100.00;100951.72;10070732;28;20450;-66
2023/02/17 10:55:36;;;;;;;41.08;22.90;;;;;;;9.02;100.00;100927.06;10067828;28;20047;-66
2023/02/17 11:00:32;;;;;;;32.88;19.52;;;;;;;9.05;100.00;100930.00;10062094;28;20047;-67
2023/02/17 11:05:32;;;;;;;33.90;19.77;;;;;;;9.06;100.00;100928.09;10070618;28;20058;-66
2023/02/17 11:10:33;;;;;;;35.63;21.50;;;;;;;9.09;100.00;100910.31;10072399;28;20506;-66
2023/02/17 11:15:45;;;;;;;31.77;18.90;;;;;;;9.12;100.00;100915.16;10069810;28;20077;-66
2023/02/17 11:20:41;;;;;;;37.72;19.70;;;;;;;9.13;100.00;100911.31;10075207;28;20047;-67
2023/02/17 11:25:38;;;;;;;31.73;19.90;;;;;;;9.15;100.00;100914.56;10080674;28;20051;-67
2023/02/17 11:30:35;;;;;;;30.95;18.48;;;;;;;9.14;100.00;100912.94;10064676;28;20074;-66
2023/02/17 11:35:34;;;;;;;28.70;16.95;;;;;;;9.14;100.00;100918.38;10080801;28;20055;-66
2023/02/17 11:40:32;;;;;;;28.10;17.15;;;;;;;9.14;100.00;100907.47;10067264;28;20191;-66
2023/02/17 11:45:34;;;;;;;35.75;21.80;;;;;;;9.17;100.00;100901.44;10067782;28;20477;-66
2023/02/17 11:50:38;;;;;;;35.42;19.33;;;;;;;9.16;100.00;100924.34;10054562;28;20856;-66
2023/02/17 11:56:09;;;;;;;34.13;19.10;;;;;;;9.20;100.00;100907.06;10065705;28;20149;-66
2023/02/17 12:01:33;;;;;;;31.63;18.20;;;;;;;9.24;100.00;100907.28;10061269;28;20047;-67
2023/02/17 12:07:07;;;;;;;28.00;17.38;;;;;;;9.26;100.00;100899.59;10064125;28;20051;-67
2023/02/17 12:12:11;;;;;;;29.45;17.67;;;;;;;9.26;100.00;100915.97;10080867;28;20051;-68
2023/02/17 12:17:35;;;;;;;34.15;17.15;;;;;;;9.31;100.00;100906.88;10066943;28;20061;-67
2023/02/17 12:22:58;;;;;;;31.20;18.73;;;;;;;9.32;100.00;100903.03;10069215;28;20140;-68
2023/02/17 12:28:20;;;;;;;39.22;18.67;;;;;;;9.35;100.00;100929.69;10062879;28;20046;-67
2023/02/17 12:33:31;;;;;;;33.58;19.10;;;;;;;9.38;100.00;100913.53;10066335;28;20509;-67
2023/02/17 12:38:35;;;;;;;29.30;17.45;;;;;;;9.37;100.00;100884.63;10078186;28;20557;-67
2023/02/17 12:43:56;;;;;;;30.83;18.33;;;;;;;9.36;100.00;100888.47;10063461;28;20538;-68
2023/02/17 12:49:01;;;;;;;25.90;16.02;;;;;;;9.39;100.00;100915.13;10083103;28;20096;-67
2023/02/17 12:54:02;;;;;;;24.23;14.68;;;;;;;9.39;100.00;100915.13;10075654;28;20055;-67
2023/02/17 12:59:09;;;;;;;25.42;15.43;;;;;;;9.38;100.00;100924.44;10066039;28;20049;-67
2023/02/17 13:04:06;;;;;;;20.10;12.77;;;;;;;9.36;100.00;100921.22;10084673;28;20106;-67
2023/02/17 13:09:23;;;;;;;21.05;12.10;;;;;;;9.38;100.00;100908.06;10069390;28;20317;-67
2023/02/17 13:14:37;;;;;;;18.25;11.40;;;;;;;9.39;100.00;100904.22;10080393;28;20074;-67
2023/02/17 13:19:34;;;;;;;14.65;9.98;;;;;;;9.40;100.00;100908.59;10074999;28;20062;-67
2023/02/17 13:24:35;;;;;;;15.68;10.73;;;;;;;9.41;100.00;100923.84;10080507;28;20047;-67
2023/02/17 13:29:34;;;;;;;14.43;9.75;;;;;;;9.40;100.00;100933.16;10081576;28;20095;-67
2023/02/17 13:34:32;;;;;;;17.55;9.98;;;;;;;9.46;100.00;100923.72;10076293;28;20051;-67
2023/02/17 13:39:32;;;;;;;16.40;11.57;;;;;;;9.54;100.00;100915.91;10077722;28;20150;-67
2023/02/17 13:44:30;;;;;;;17.77;11.82;;;;;;;9.56;100.00;100914.53;10081062;28;20560;-68
2023/02/17 13:49:31;;;;;;;21.58;12.90;;;;;;;9.58;100.00;100916.94;10084146;28;20532;-67
2023/02/17 13:54:28;;;;;;;18.10;12.63;;;;;;;9.55;100.00;100906.63;10077951;28;20045;-67
2023/02/17 13:59:26;;;;;;;23.75;14.02;;;;;;;9.52;100.00;100929.91;10071606;28;20047;-68
2023/02/17 14:04:26;;;;;;;18.50;13.73;;;;;;;9.59;100.00;100945.88;10065734;28;20463;-67
2023/02/17 14:09:26;;;;;;;19.20;13.52;;;;;;;9.60;100.00;100942.00;10083408;28;20047;-67
2023/02/17 14:14:28;;;;;;;20.00;14.55;;;;;;;9.64;100.00;100948.47;10077022;28;20138;-67
2023/02/17 14:19:24;;;;;;;17.85;12.77;;;;;;;9.64;100.00;100959.41;10085499;28;20209;-67
2023/02/17 14:24:36;;;;;;;12.85;11.55;;;;;;;9.71;100.00;100965.25;10088958;28;20057;-67
2023/02/17 14:29:46;;;;;;;13.73;10.85;;;;;;;9.74;100.00;100937.31;10073096;28;20406;-66
2023/02/17 14:34:43;;;;;;;17.95;10.35;;;;;;;9.73;100.00;100951.31;10080322;28;20103;-66
2023/02/17 14:39:39;;;;;;;9.13;7.75;;;;;;;9.62;100.00;100924.22;10081359;28;20054;-67
2023/02/17 14:44:36;;;;;;;10.52;6.22;;;;;;;9.60;100.00;100931.09;10077189;28;20047;-66
2023/02/17 14:49:32;;;;;;;15.07;8.20;;;;;;;9.32;100.00;100930.31;10076074;28;20055;-66
2023/02/17 14:54:29;;;;;;;17.55;7.45;;;;;;;9.33;100.00;100959.19;10063273;28;20055;-66
2023/02/17 14:59:25;;;;;;;20.73;7.47;;;;;;;9.27;100.00;100955.78;10066141;28;20071;-66
2023/02/17 15:04:22;;;;;;;13.18;7.90;;;;;;;9.22;100.00;101002.28;10087675;28;20054;-66
2023/02/17 15:09:26;;;;;;;19.70;7.40;;;;;;;9.18;100.00;100946.69;10082381;28;20083;-66
2023/02/17 15:14:23;;;;;;;17.02;7.38;;;;;;;9.04;100.00;100969.28;10097119;28;20051;-66
2023/02/17 15:19:20;;;;;;;12.18;6.60;;;;;;;9.08;100.00;100982.34;10089301;28;20138;-66
2023/02/17 15:24:21;;;;;;;15.40;8.70;;;;;;;8.99;100.00;100993.94;10084577;28;20050;-66
2023/02/17 15:29:23;;;;;;;14.52;6.93;;;;;;;8.88;100.00;101027.94;10083672;28;20509;-66
2023/02/17 15:34:29;;;;;;;22.87;7.07;;;;;;;8.76;100.00;101022.16;10072041;28;20071;-66
2023/02/17 15:39:26;;;;;;;17.45;6.75;;;;;;;8.69;100.00;101022.53;10068502;28;20074;-66
2023/02/17 15:44:27;;;;;;;31.90;9.00;;;;;;;8.62;100.00;101028.38;10073496;28;20729;-66
2023/02/17 15:49:23;;;;;;;32.25;7.90;;;;;;;8.47;100.00;101042.25;10069686;28;20047;-65
2023/02/17 15:54:20;;;;;;;23.65;8.48;;;;;;;8.39;100.00;101048.31;10072587;28;20057;-66
2023/02/17 15:59:25;;;;;;;24.90;8.15;;;;;;;8.32;100.00;101034.25;10072816;28;20060;-66
2023/02/17 16:04:21;;;;;;;24.75;7.50;;;;;;;8.23;100.00;101040.34;10068210;28;20055;-66
2023/02/17 16:09:20;;;;;;;26.15;8.45;;;;;;;8.10;100.00;101032.94;10074923;28;20063;-65
2023/02/17 16:14:27;;;;;;;24.52;7.78;;;;;;;8.03;100.00;101046.09;10083900;28;20049;-65
2023/02/17 16:19:23;;;;;;;35.47;7.95;;;;;;;7.77;100.00;101046.44;10083246;28;20047;-65
2023/02/17 16:24:20;;;;;;;21.98;7.60;;;;;;;7.72;100.00;101060.06;10093466;28;20054;-66
2023/02/17 16:29:19;;;;;;;17.75;7.70;;;;;;;7.63;100.00;101089.03;10071062;28;20043;-66
2023/02/17 16:34:19;;;;;;;22.23;6.97;;;;;;;7.51;100.00;101080.47;10081570;28;20123;-67
2023/02/17 16:39:21;;;;;;;24.90;8.07;;;;;;;7.37;100.00;101132.81;10082488;28;20043;-66
2023/02/17 16:44:21;;;;;;;22.52;7.15;;;;;;;7.48;100.00;101119.13;10077441;28;20057;-66
2023/02/17 16:49:32;;;;;;;28.88;7.85;;;;;;;7.44;100.00;101123.50;10077464;28;20043;-66
2023/02/17 16:54:29;;;;;;;19.45;8.63;;;;;;;7.37;100.00;101134.72;10078607;28;20776;-66
2023/02/17 16:59:26;;;;;;;25.63;7.60;;;;;;;7.36;100.00;101139.38;10078249;28;20509;-66
2023/02/17 17:04:23;;;;;;;21.63;8.20;;;;;;;7.21;100.00;101125.88;10069908;28;20078;-66
2023/02/17 17:09:23;;;;;;;24.52;8.63;;;;;;;7.13;100.00;101151.00;10063249;28;20114;-65
2023/02/17 17:14:19;;;;;;;25.23;8.50;;;;;;;7.09;100.00;101167.03;10064096;28;20047;-66
2023/02/17 17:19:17;;;;;;;19.60;8.60;;;;;;;7.03;100.00;101184.50;10067655;28;20043;-66
2023/02/17 17:24:14;;;;;;;30.30;8.77;;;;;;;6.97;100.00;101201.13;10079229;28;20043;-66
2023/02/17 17:29:13;;;;;;;30.95;8.77;;;;;;;6.89;100.00;101216.94;10067285;28;20067;-66
2023/02/17 17:34:09;;;;;;;26.98;8.45;;;;;;;7.04;100.00;101224.19;10067841;28;20058;-66
2023/02/17 17:39:12;;;;;;;21.65;7.57;;;;;;;6.87;100.00;101213.69;10066400;28;20487;-65
2023/02/17 17:44:09;;;;;;;29.40;9.07;;;;;;;6.82;100.00;101232.72;10063739;28;20043;-66
2023/02/17 17:49:09;;;;;;;32.25;10.13;;;;;;;6.79;100.00;101233.28;10044106;28;20166;-66
2023/02/17 17:54:06;;;;;;;33.72;8.27;;;;;;;6.75;100.00;101237.66;10057186;28;20146;-67
2023/02/17 17:59:03;;;;;;;24.48;8.52;;;;;;;6.65;100.00;101226.84;10053303;28;20043;-68
2023/02/17 18:04:00;;;;;;;22.83;8.30;;;;;;;6.67;100.00;101243.69;10049985;28;20051;-66
2023/02/17 18:09:01;;;;;;;17.80;7.30;;;;;;;6.66;100.00;101315.41;10054152;28;20150;-66
2023/02/17 18:14:02;;;;;;;21.02;7.75;;;;;;;6.63;100.00;101261.63;10030378;28;20047;-66
2023/02/17 18:19:01;;;;;;;20.67;7.93;;;;;;;6.62;100.00;101265.44;10055814;28;20407;-66
2023/02/17 18:23:57;;;;;;;20.25;8.07;;;;;;;6.61;100.00;101274.69;10058583;28;20551;-66
2023/02/17 18:28:55;;;;;;;31.77;8.60;;;;;;;6.53;100.00;101306.75;10057729;28;20507;-66
2023/02/17 18:33:53;;;;;;;24.17;7.53;;;;;;;6.53;100.00;101273.34;10067359;28;20043;-66
2023/02/17 18:38:50;;;;;;;24.98;7.63;;;;;;;6.59;100.00;101282.28;10059245;28;20051;-67
2023/02/17 18:43:47;;;;;;;22.27;7.70;;;;;;;6.59;100.00;101298.59;10065084;28;20142;-65
2023/02/17 18:48:44;;;;;;;20.48;8.13;;;;;;;6.63;100.00;101299.66;10069160;28;20464;-65
2023/02/17 18:53:40;;;;;;;17.05;6.53;;;;;;;6.59;100.00;101304.03;10080370;28;20146;-65
2023/02/17 18:58:37;;;;;;;45.55;8.30;;;;;;;6.51;100.00;101298.06;10068061;28;20055;-65
2023/02/17 19:03:34;;;;;;;22.00;6.75;;;;;;;6.44;100.00;101289.41;10074140;28;20501;-65
2023/02/17 19:08:30;;;;;;;30.70;9.55;;;;;;;6.37;100.00;101318.75;10076318;28;20043;-65
2023/02/17 19:13:27;;;;;;;30.23;9.20;;;;;;;6.34;100.00;101322.03;10069228;28;20051;-65
2023/02/17 19:18:23;;;;;;;29.58;9.27;;;;;;;6.34;100.00;101351.91;10069718;28;20131;-65
2023/02/17 19:23:21;;;;;;;33.85;8.43;;;;;;;6.34;100.00;101356.53;10060788;28;20143;-65
2023/02/17 19:28:17;;;;;;;24.50;7.88;;;;;;;6.28;100.00;101369.28;10075644;28;20102;-65
2023/02/17 19:33:14;;;;;;;25.23;8.30;;;;;;;6.21;100.00;101357.88;10070577;28;20194;-65
2023/02/17 19:38:10;;;;;;;29.23;8.43;;;;;;;6.23;100.00;101356.53;10071506;28;20498;-65
2023/02/17 19:43:06;;;;;;;38.08;9.65;;;;;;;6.22;100.00;101383.94;10069854;28;20082;-66
2023/02/17 19:48:04;;;;;;;32.50;9.85;;;;;;;6.24;100.00;101400.78;10075764;28;20057;-66
2023/02/17 19:53:01;;;;;;;24.75;7.68;;;;;;;6.27;100.00;101411.13;10069898;28;20094;-65
2023/02/17 19:57:57;;;;;;;24.67;7.68;;;;;;;6.30;100.00;101416.00;10069251;28;20097;-65
2023/02/17 20:02:53;;;;;;;31.20;7.22;;;;;;;6.29;100.00;101414.38;10074209;28;20500;-66
2023/02/17 20:07:50;;;;;;;31.05;7.78;;;;;;;6.29;100.00;101423.34;10070301;28;22013;-66
2023/02/17 20:12:46;;;;;;;22.80;6.82;;;;;;;6.31;100.00;101423.06;10065986;28;20049;-66
2023/02/17 20:17:43;;;;;;;25.67;7.10;;;;;;;6.27;100.00;101449.16;10072586;28;20043;-65
2023/02/17 20:22:40;;;;;;;24.40;7.72;;;;;;;6.30;100.00;101459.47;10069242;28;20051;-66
2023/02/17 20:27:36;;;;;;;22.50;7.43;;;;;;;6.32;100.00;101446.44;10083873;28;20074;-65
2023/02/17 20:32:33;;;;;;;22.85;7.10;;;;;;;6.33;100.00;101448.03;10072026;28;20465;-66
2023/02/17 20:37:29;;;;;;;25.92;6.53;;;;;;;6.27;100.00;101411.13;10071680;28;20122;-66
2023/02/17 20:42:26;;;;;;;24.50;6.65;;;;;;;6.30;100.00;101448.59;10059235;28;20497;-66
2023/02/17 20:47:22;;;;;;;26.80;7.10;;;;;;;6.17;100.00;101452.66;10067518;28;20142;-66
2023/02/17 20:52:18;;;;;;;14.40;5.57;;;;;;;6.21;100.00;101461.06;10079748;28;20081;-66
2023/02/17 20:57:15;;;;;;;26.65;6.95;;;;;;;6.20;100.00;101508.34;10076228;28;20047;-67
2023/02/17 21:02:11;;;;;;;21.58;6.95;;;;;;;6.17;100.00;101504.22;10063782;28;20521;-66
2023/02/17 21:07:09;;;;;;;22.13;6.50;;;;;;;6.18;100.00;101494.22;10077742;28;20070;-66
2023/02/17 21:12:06;;;;;;;27.83;7.15;;;;;;;6.13;100.00;101496.91;10071432;28;20055;-66
2023/02/17 21:17:03;;;;;;;20.23;7.72;;;;;;;6.02;100.00;101501.50;10081179;28;20502;-66
2023/02/17 21:21:59;;;;;;;29.23;7.25;;;;;;;6.02;100.00;101513.19;10081665;28;20054;-66
2023/02/17 21:26:56;;;;;;;31.58;8.68;;;;;;;5.95;100.00;101501.75;10073822;28;20117;-66
2023/02/17 21:31:53;;;;;;;25.13;6.32;;;;;;;5.89;100.00;101511.75;10065271;28;20046;-66
2023/02/17 21:36:49;;;;;;;23.52;6.72;;;;;;;5.90;100.00;101516.09;10073632;28;20039;-66
2023/02/17 21:41:46;;;;;;;22.13;7.25;;;;;;;5.87;100.00;101504.94;10060798;28;20538;-66
2023/02/17 21:46:44;;;;;;;29.15;9.02;;;;;;;5.86;100.00;101508.75;10076112;28;20643;-66
2023/02/17 21:51:40;;;;;;;28.95;7.53;;;;;;;5.81;100.00;101511.47;10071631;28;20048;-66
2023/02/17 21:56:37;;;;;;;25.33;6.32;;;;;;;5.78;100.00;101511.97;10077676;28;20066;-66
2023/02/17 22:01:34;;;;;;;25.27;7.82;;;;;;;5.68;100.00;101497.28;10075315;28;20065;-66
2023/02/17 22:06:35;;;;;;;26.17;6.78;;;;;;;5.76;100.00;101533.16;10063206;28;20691;-66
2023/02/17 22:11:33;;;;;;;28.83;7.90;;;;;;;5.72;100.00;101502.19;10066371;28;20051;-66
2023/02/17 22:16:32;;;;;;;27.20;8.50;;;;;;;5.64;100.00;101511.66;10075494;28;20414;-66
2023/02/17 22:21:29;;;;;;;34.80;7.45;;;;;;;5.66;100.00;101521.19;10080338;28;20058;-66
2023/02/17 22:26:26;;;;;;;31.63;8.60;;;;;;;5.62;100.00;101514.66;10079445;28;20044;-66
2023/02/17 22:31:25;;;;;;;24.95;7.45;;;;;;;5.67;100.00;101539.06;10075253;28;20047;-66
2023/02/17 22:36:23;;;;;;;24.02;7.75;;;;;;;5.64;100.00;101515.19;10049688;28;20517;-66